Nuiqsut Airport
PAQT : now visible

Airfield :











YOU CAN JOIN US ON...

 
LOGIN :

Register | Disclaimer

   EN    FR    IT 

 









Legend :    VFR   Marginal VFR   IFR   Intensive IFR   Very Intensive IFR
Visi :
Ceiling :
>= 8 km
>= 3000ft
5 to 8 km
1000 to 3000 ft
1500m to 5 km
500 to 1000 ft
800 to 1500m
200 to 500 ft
< 800m
< 200 ft
Symbols :   Thunderstorms  Fog  Heavy snow  Heavy precipitations  Wind > 20 kt






- Airport Elevation : 38 ft
- IATA code : AQT


PAQT - Nuiqsut

CURRENT METAR :
  • 241653Z AUTO 22007KT 10SM CLR M34/M36 A3045 RMK AO2 SLP314 T13391361 TSNO PNO $

EXPIRED METARs :
  • 241553Z AUTO 20010KT 10SM CLR M33/M36 A3044 RMK AO2 SLP310 T13281356 TSNO PNO $
  • 241453Z AUTO 23013KT 10SM CLR M31/M33 A3041 RMK AO2 SLP299 T13061328 51017 TSNO PNO $

TAF PAQT
Valid from the 24 at 15:00 until the 25 at 12:00 UTC


241458Z 2415/2512 23013KT P6SM SKC
FM242200 20010KT P6SM FEW050



MET'MAP, your aeronautical weather chart ! - Copyright ORBIFLY December 2007 - Disclaimer

ORBIFLY MET'MAP TEAM :

Programming & Development : Alexandra Zaïnal
Concept & original design : Baudouin d'Aumeries
Assistance for programming : Marc-Olivier Méhu
Technical & hardware support : Manuel Goepfert

Contact : metmap@orbifly.com




SOURCES & CREDITS :

   NOAA       Earth
Advisory